Photometre #47[NE_1.6] Minsk AOT

File : 20220924_47.hum

24/09/2022,04:59:05,TEMP=8.0,BA=5.72,STAT.A=1.0,ExtBa=13.94
24/09/2022,05:03:31,TEMP=8.1,BA=5.64,STAT.A=1.0,ExtBa=13.90
24/09/2022,05:08:42,TEMP=8.2,BA=5.64,STAT.A=1.0,ExtBa=13.88
24/09/2022,05:14:53,TEMP=8.3,BA=5.60,STAT.A=1.0,ExtBa=13.87
24/09/2022,05:22:22,TEMP=8.4,BA=5.72,STAT.A=1.0,ExtBa=13.87
24/09/2022,05:31:38,TEMP=8.4,BA=5.72,STAT.A=1.0,ExtBa=13.87
24/09/2022,05:43:27,TEMP=8.5,BA=5.72,STAT.B=1.0,ExtBa=13.89
24/09/2022,05:49:09,TEMP=8.6,BA=5.72,STAT.A=1.0,ExtBa=13.87
24/09/2022,05:55:34,TEMP=8.7,BA=5.64,STAT.A=1.0,ExtBa=13.86
24/09/2022,06:02:51,TEMP=8.9,BA=5.72,STAT.A=1.0,ExtBa=13.85
24/09/2022,06:11:13,TEMP=8.9,BA=5.72,STAT.A=1.0,ExtBa=13.86
24/09/2022,06:20:56,TEMP=8.9,BA=5.72,STAT.C=1.0,ExtBa=13.87
24/09/2022,06:32:25,TEMP=8.9,BA=5.72,STAT.A=1.0,ExtBa=13.88
24/09/2022,06:46:13,TEMP=9.0,BA=5.72,STAT.A=1.0,ExtBa=13.90
24/09/2022,07:02:20,TEMP=9.3,BA=5.72,STAT.F,ExtBa=13.90
24/09/2022,07:17:19,TEMP=9.9,BA=5.72,STAT.D=1.0,ExtBa=13.91
24/09/2022,07:32:19,TEMP=10.5,BA=5.72,STAT.D=1.0,ExtBa=13.91
24/09/2022,07:47:19,TEMP=10.5,BA=5.72,STAT.D=1.0,ExtBa=13.91
24/09/2022,08:02:21,TEMP=11.2,BA=5.72,STAT.F,ExtBa=13.91
24/09/2022,08:17:19,TEMP=12.1,BA=5.72,STAT.D=1.5,ExtBa=13.91
24/09/2022,08:32:19,TEMP=12.2,BA=5.72,STAT.D=1.5,ExtBa=13.91
24/09/2022,08:47:19,TEMP=12.8,BA=5.72,STAT.D=1.5,ExtBa=13.90
24/09/2022,09:02:21,TEMP=12.8,BA=5.72,STAT.F,ExtBa=13.91
24/09/2022,09:17:19,TEMP=12.8,BA=5.52,STAT.D=1.5,ExtBa=13.53
24/09/2022,09:32:19,TEMP=14.0,BA=5.72,STAT.D=1.5,ExtBa=13.71
24/09/2022,09:47:19,TEMP=14.2,BA=5.72,STAT.D=1.5,ExtBa=13.82
24/09/2022,10:02:21,TEMP=14.7,BA=5.68,STAT.F,ExtBa=13.87
24/09/2022,10:17:20,TEMP=14.6,BA=5.52,STAT.D=1.5,ExtBa=13.46
24/09/2022,10:32:20,TEMP=14.6,BA=5.68,STAT.D=1.5,ExtBa=13.69
24/09/2022,10:47:20,TEMP=14.0,BA=5.68,STAT.D=1.5,ExtBa=13.79
24/09/2022,11:02:21,TEMP=14.0,BA=5.68,STAT.F,ExtBa=13.84
24/09/2022,11:17:32,TEMP=14.8,BA=5.52,STAT.D=1.5,ExtBa=13.04
24/09/2022,11:32:19,TEMP=14.7,BA=5.68,STAT.D=1.5,ExtBa=13.49
24/09/2022,11:47:19,TEMP=15.3,BA=5.68,STAT.D=1.5,ExtBa=13.70
24/09/2022,12:02:21,TEMP=15.7,BA=5.68,STAT.F,ExtBa=13.78
24/09/2022,12:17:19,TEMP=14.8,BA=5.68,STAT.D=1.5,ExtBa=13.84
24/09/2022,12:32:19,TEMP=14.0,BA=5.68,STAT.D=1.5,ExtBa=13.87
24/09/2022,12:47:19,TEMP=14.2,BA=5.68,STAT.D=1.5,ExtBa=13.88
24/09/2022,13:02:21,TEMP=15.4,BA=5.68,STAT.F,ExtBa=13.88
24/09/2022,13:18:28,TEMP=14.5,BA=5.52,STAT.A=1.5,ExtBa=13.50
24/09/2022,13:32:15,TEMP=13.6,BA=5.68,STAT.A=1.5,ExtBa=13.70
24/09/2022,13:43:42,TEMP=13.2,BA=5.68,STAT.C=1.5,ExtBa=13.78
24/09/2022,13:53:38,TEMP=13.5,BA=5.52,STAT.A=1.5,ExtBa=13.33
24/09/2022,14:01:47,TEMP=12.9,BA=5.68,STAT.A=1.5,ExtBa=13.51
24/09/2022,14:09:04,TEMP=13.0,BA=5.68,STAT.A=1.5,ExtBa=13.61
24/09/2022,14:15:29,TEMP=13.7,BA=5.52,STAT.A=1.5,ExtBa=13.63
24/09/2022,14:21:11,TEMP=13.8,BA=5.68,STAT.B=1.5,ExtBa=13.63
24/09/2022,14:33:01,TEMP=13.7,BA=5.56,STAT.A=1.5,ExtBa=13.25
24/09/2022,14:42:16,TEMP=14.4,BA=5.68,STAT.A=1.5,ExtBa=13.45
24/09/2022,14:49:45,TEMP=14.6,BA=5.68,STAT.A=1.5,ExtBa=13.54
24/09/2022,14:55:56,TEMP=14.3,BA=5.56,STAT.A=1.5,ExtBa=13.58
24/09/2022,15:01:07,TEMP=14.0,BA=5.68,STAT.A=1.5,ExtBa=13.60
24/09/2022,15:05:33,TEMP=13.7,BA=5.68,STAT.A=1.5,ExtBa=13.58